Map

Track Data

SID SEASON NUMBER BASIN SUBBASIN NAME ISO_TIME NATURE LAT LON WMO_WIND WMO_PRES WMO_AGENCY TRACK_TYPE DIST2LAND LANDFALL IFLAG USA_AGENCY USA_ATCF_ID USA_LAT USA_LON USA_RECORD USA_STATUS USA_WIND USA_PRES USA_SSHS USA_R34_NE USA_R34_SE USA_R34_SW USA_R34_NW USA_R50_NE USA_R50_SE USA_R50_SW USA_R50_NW USA_R64_NE USA_R64_SE USA_R64_SW USA_R64_NW USA_POCI USA_ROCI USA_RMW USA_EYE TOKYO_LAT TOKYO_LON TOKYO_GRADE TOKYO_WIND TOKYO_PRES TOKYO_R50_DIR TOKYO_R50_LONG TOKYO_R50_SHORT TOKYO_R30_DIR TOKYO_R30_LONG TOKYO_R30_SHORT TOKYO_LAND CMA_LAT CMA_LON CMA_CAT CMA_WIND CMA_PRES HKO_LAT HKO_LON HKO_CAT HKO_WIND HKO_PRES NEWDELHI_LAT NEWDELHI_LON NEWDELHI_GRADE NEWDELHI_WIND NEWDELHI_PRES NEWDELHI_CI NEWDELHI_DP NEWDELHI_POCI REUNION_LAT REUNION_LON REUNION_TYPE REUNION_WIND REUNION_PRES REUNION_TNUM REUNION_CI REUNION_RMW REUNION_R34_NE REUNION_R34_SE REUNION_R34_SW REUNION_R34_NW REUNION_R50_NE REUNION_R50_SE REUNION_R50_SW REUNION_R50_NW REUNION_R64_NE REUNION_R64_SE REUNION_R64_SW REUNION_R64_NW BOM_LAT BOM_LON BOM_TYPE BOM_WIND BOM_PRES BOM_TNUM BOM_CI BOM_RMW BOM_R34_NE BOM_R34_SE BOM_R34_SW BOM_R34_NW BOM_R50_NE BOM_R50_SE BOM_R50_SW BOM_R50_NW BOM_R64_NE BOM_R64_SE BOM_R64_SW BOM_R64_NW BOM_ROCI BOM_POCI BOM_EYE BOM_POS_METHOD BOM_PRES_METHOD NADI_LAT NADI_LON NADI_CAT NADI_WIND NADI_PRES WELLINGTON_LAT WELLINGTON_LON WELLINGTON_WIND WELLINGTON_PRES DS824_LAT DS824_LON DS824_STAGE DS824_WIND DS824_PRES TD9636_LAT TD9636_LON TD9636_STAGE TD9636_WIND TD9636_PRES TD9635_LAT TD9635_LON TD9635_WIND TD9635_PRES TD9635_ROCI NEUMANN_LAT NEUMANN_LON NEUMANN_CLASS NEUMANN_WIND NEUMANN_PRES MLC_LAT MLC_LON MLC_CLASS MLC_WIND MLC_PRES USA_GUST BOM_GUST BOM_GUST_PER REUNION_GUST REUNION_GUST_PER USA_SEAHGT USA_SEARAD_NE USA_SEARAD_SE USA_SEARAD_SW USA_SEARAD_NW STORM_SPEED STORM_DIR
2021032S21121 2021 9 SI WA NOT_NAMED 2021-01-31 12:00:00 NR -21.4000 121.100 PROVISIONAL 0 0 O_____________ tcvitals SI182021 -21.4000 121.100 29 998 -1 1002 200 30 13 267
2021032S21121 2021 9 SI WA NOT_NAMED 2021-01-31 15:00:00 NR -21.4281 120.421 PROVISIONAL 0 0 P_____________ SI182021 -21.4281 120.421 29 997 -1 1001 185 30 12 275
2021032S21121 2021 9 SI WA NOT_NAMED 2021-01-31 18:00:00 NR -21.3000 119.800 PROVISIONAL 0 0 O_____________ tcvitals SI182021 -21.3000 119.800 29 997 -1 1001 170 30 12 295
2021032S21121 2021 9 SI WA NOT_NAMED 2021-01-31 21:00:00 NR -20.9423 119.302 PROVISIONAL 0 0 P_____________ SI182021 -20.9423 119.302 29 997 -1 1001 170 30 10 313
2021032S21121 2021 9 SI WA NOT_NAMED 2021-02-01 00:00:00 NR -20.6000 119.000 PROVISIONAL 0 0 O_____________ tcvitals SI182021 -20.6000 119.000 29 997 -1 1001 170 30 5 328
2021032S21121 2021 9 SI WA NOT_NAMED 2021-02-01 03:00:00 NR -20.5097 119.008 PROVISIONAL 0 0 P_____________ SI182021 -20.5097 119.008 29 997 -1 1001 170 30 0 0
2021032S21121 2021 9 SI WA NOT_NAMED 2021-02-01 06:00:00 NR -20.6000 119.000 PROVISIONAL 0 0 O_____________ tcvitals SI182021 -20.6000 119.000 29 997 -1 1001 170 30 5 229
2021032S21121 2021 9 SI WA NOT_NAMED 2021-02-01 09:00:00 NR -20.8202 118.625 PROVISIONAL 0 0 P_____________ SI182021 -20.8202 118.625 29 996 -1 1001 170 32 10 239
2021032S21121 2021 9 SI WA NOT_NAMED 2021-02-01 12:00:00 NR -21.1000 118.100 PROVISIONAL 0 0 O_____________ tcvitals SI182021 -21.1000 118.100 29 996 -1 1001 170 35 11 244
2021032S21121 2021 9 SI WA NOT_NAMED 2021-02-01 15:00:00 NR -21.2925 117.600 PROVISIONAL 0 0 P_____________ SI182021 -21.2925 117.600 29 994 -1 1001 172 32 10 247
2021032S21121 2021 9 SI WA NOT_NAMED 2021-02-01 18:00:00 NR -21.5000 117.100 PROVISIONAL 0 0 O_____________ tcvitals SI182021 -21.5000 117.100 29 992 -1 1001 175 30 10 243
2021032S21121 2021 9 SI WA NOT_NAMED 2021-02-01 21:00:00 NR -21.7700 116.613 PROVISIONAL 0 0 P_____________ SI182021 -21.7700 116.613 29 994 -1 1001 177 30 10 234
2021032S21121 2021 9 SI WA NOT_NAMED 2021-02-02 00:00:00 NR -22.1000 116.200 PROVISIONAL 0 0 O_____________ tcvitals SI182021 -22.1000 116.200 29 996 -1 1001 180 30 10 221
2021032S21121 2021 9 SI WA NOT_NAMED 2021-02-02 03:00:00 NR -22.4922 115.927 PROVISIONAL 0 0 P_____________ SI182021 -22.4922 115.927 29 997 -1 1002 222 30 9 210
2021032S21121 2021 9 SI WA NOT_NAMED 2021-02-02 06:00:00 NR -22.9000 115.700 PROVISIONAL 0 0 O_____________ tcvitals SI182021 -22.9000 115.700 29 998 -1 1003 265 30 9 212
2021032S21121 2021 9 SI WA NOT_NAMED 2021-02-02 09:00:00 NR -23.2650 115.407 PROVISIONAL 0 0 P_____________ SI182021 -23.2650 115.407 29 998 -1 1003 265 30 9 218
2021032S21121 2021 9 SI WA NOT_NAMED 2021-02-02 12:00:00 NR -23.6000 115.100 PROVISIONAL 0 0 O_____________ tcvitals SI182021 -23.6000 115.100 29 998 -1 1003 265 30 9 219
2021032S21121 2021 9 SI WA NOT_NAMED 2021-02-02 15:00:00 NR -23.9901 114.770 PROVISIONAL 0 0 P_____________ SI182021 -23.9901 114.770 29 998 -1 1003 257 30 8 222
2021032S21121 2021 9 SI WA NOT_NAMED 2021-02-02 18:00:00 NR -24.2000 114.500 PROVISIONAL 0 0 O_____________ tcvitals SI182021 -24.2000 114.500 29 998 -1 1003 250 30 4 272
2021032S21121 2021 9 SI WA NOT_NAMED 2021-02-02 21:00:00 NR -23.9799 114.355 PROVISIONAL 0 0 P_____________ SI182021 -23.9799 114.355 29 997 -1 1003 235 30 5 340
2021032S21121 2021 9 SI WA NOT_NAMED 2021-02-03 00:00:00 NR -23.7000 114.300 PROVISIONAL 0 0 O_____________ tcvitals SI182021 -23.7000 114.300 29 997 -1 1003 220 30 2 340
2021032S21121 2021 9 SI WA NOT_NAMED 2021-02-03 03:00:00 NR -23.7625 114.270 PROVISIONAL 0 0 P_____________ SI182021 -23.7625 114.270 29 995 -1 1002 220 30 2 172
2021032S21121 2021 9 SI WA NOT_NAMED 2021-02-03 06:00:00 NR -23.9000 114.300 PROVISIONAL 0 0 O_____________ tcvitals SI182021 -23.9000 114.300 29 994 -1 1001 220 30 2 150
2021032S21121 2021 9 SI WA NOT_NAMED 2021-02-03 09:00:00 NR -23.9225 114.377 PROVISIONAL 0 0 P_____________ SI182021 -23.9225 114.377 29 993 -1 1001 200 30 2 90
2021032S21121 2021 9 SI WA NOT_NAMED 2021-02-03 12:00:00 NR -23.9000 114.500 PROVISIONAL 0 0 O_____________ tcvitals SI182021 -23.9000 114.500 29 992 -1 1001 180 30 3 70
2021032S21121 2021 9 SI WA NOT_NAMED 2021-02-03 15:00:00 NR -23.8125 114.702 PROVISIONAL 0 0 P_____________ SI182021 -23.8125 114.702 29 992 -1 1000 180 30 3 70
2021032S21121 2021 9 SI WA NOT_NAMED 2021-02-03 18:00:00 NR -23.8000 114.800 PROVISIONAL 0 0 O_____________ tcvitals SI182021 -23.8000 114.800 29 992 -1 1000 180 30 2 200
2021032S21121 2021 9 SI WA NOT_NAMED 2021-02-03 21:00:00 NR -24.0350 114.618 PROVISIONAL 0 0 P_____________ SI182021 -24.0350 114.618 29 992 -1 1000 165 30 7 222
2021032S21121 2021 9 SI WA NOT_NAMED 2021-02-04 00:00:00 NR -24.3000 114.300 PROVISIONAL 0 0 O_____________ tcvitals SI182021 -24.3000 114.300 29 993 -1 1001 150 30 7 240
2021032S21121 2021 9 SI WA NOT_NAMED 2021-02-04 03:00:00 NR -24.3726 113.985 PROVISIONAL 0 0 P_____________ SI182021 -24.3726 113.985 32 994 -1 1001 150 27 6 260
2021032S21121 2021 9 SI WA NOT_NAMED 2021-02-04 06:00:00 NR -24.4000 113.700 PROVISIONAL 0 0 O_____________ tcvitals SI182021 -24.4000 113.700 35 996 0 30 30 60 45 1001 150 25 4 254
2021032S21121 2021 9 SI WA NOT_NAMED 2021-02-04 09:00:00 NR -24.4924 113.527 PROVISIONAL 0 0 P_____________ SI182021 -24.4924 113.527 35 994 0 30 30 60 45 1000 170 25 3 234
2021032S21121 2021 9 SI WA NOT_NAMED 2021-02-04 12:00:00 NR -24.6000 113.400 PROVISIONAL 15 15 O_____________ tcvitals SI182021 -24.6000 113.400 35 992 0 30 30 60 45 1000 190 25 3 228
2021032S21121 2021 9 SI WA NOT_NAMED 2021-02-04 15:00:00 NR -24.6923 113.287 PROVISIONAL 30 30 P_____________ SI182021 -24.6923 113.287 35 994 0 22 20 57 45 1000 190 25 3 234
2021032S21121 2021 9 SI WA NOT_NAMED 2021-02-04 18:00:00 NR -24.8000 113.100 PROVISIONAL 51 51 O_____________ tcvitals SI182021 -24.8000 113.100 35 996 0 15 11 55 45 1001 190 25 6 241
2021032S21121 2021 9 SI WA NOT_NAMED 2021-02-04 21:00:00 NR -24.9803 112.708 PROVISIONAL 91 91 P_____________ SI182021 -24.9803 112.708 35 996 0 15 11 55 45 1001 190 25 8 248
2021032S21121 2021 9 SI WA NOT_NAMED 2021-02-05 00:00:00 NR -25.1000 112.300 PROVISIONAL 129 129 O_____________ tcvitals SI182021 -25.1000 112.300 35 996 0 15 11 55 45 1001 190 25 6 266
2021032S21121 2021 9 SI WA NOT_NAMED 2021-02-05 03:00:00 NR -25.0299 112.010 PROVISIONAL 156 156 P_____________ SI182021 -25.0299 112.010 35 994 0 50 80 1001 190 25 4 299
2021032S21121 2021 9 SI WA NOT_NAMED 2021-02-05 06:00:00 NR -24.9000 111.900 PROVISIONAL 161 148 O_____________ tcvitals SI182021 -24.9000 111.900 35 992 0 90 105 1001 190 25 2 0
2021032S21121 2021 9 SI WA NOT_NAMED 2021-02-05 09:00:00 NR -24.8050 112.025 PROVISIONAL 148 119 P_____________ SI182021 -24.8050 112.025 35 991 0 90 105 1001 190 25 4 75
2021032S21121 2021 9 SI WA NOT_NAMED 2021-02-05 12:00:00 NR -24.8000 112.300 PROVISIONAL 119 98 O_____________ tcvitals SI182021 -24.8000 112.300 35 991 0 90 105 1001 190 25 6 103
2021032S21121 2021 9 SI WA NOT_NAMED 2021-02-05 15:00:00 NR -24.9327 112.622 PROVISIONAL 98 73 P_____________ SI182021 -24.9327 112.622 35 993 0 65 77 1001 195 25 7 126
2021032S21121 2021 9 SI WA NOT_NAMED 2021-02-05 18:00:00 NR -25.2000 112.900 PROVISIONAL 74 45 O_____________ tcvitals SI182021 -25.2000 112.900 35 995 0 35 40 50 50 1001 200 25 7 153
2021032S21121 2021 9 SI WA NOT_NAMED 2021-02-05 21:00:00 NR -25.5474 112.973 PROVISIONAL 45 31 P_____________ SI182021 -25.5474 112.973 35 995 0 32 70 47 1001 202 25 8 174
2021032S21121 2021 9 SI WA NOT_NAMED 2021-02-06 00:00:00 NR -26.0000 113.000 PROVISIONAL 31 19 O_____________ tcvitals SI182021 -26.0000 113.000 35 995 0 25 90 45 1001 205 25 10 173
2021032S21121 2021 9 SI WA NOT_NAMED 2021-02-06 03:00:00 NR -26.5424 113.113 PROVISIONAL 29 29 P_____________ SI182021 -26.5424 113.113 35 995 0 25 87 42 1001 237 30 11 166
2021032S21121 2021 9 SI WA NOT_NAMED 2021-02-06 06:00:00 NR -27.1000 113.300 PROVISIONAL 50 45 O_____________ tcvitals SI182021 -27.1000 113.300 35 996 0 25 85 40 1002 270 35 11 158
2021032S21121 2021 9 SI WA NOT_NAMED 2021-02-06 09:00:00 NR -27.5777 113.575 PROVISIONAL 50 29 P_____________ SI182021 -27.5777 113.575 32 995 -1 1002 250 35 10 149
2021032S21121 2021 9 SI WA NOT_NAMED 2021-02-06 12:00:00 NR -28.0000 113.900 PROVISIONAL 29 O_____________ tcvitals SI182021 -28.0000 113.900 29 995 -1 1002 230 35 10 146

About IBTrACS Database

This database is a web-friendly format of International Best Track Archive for Climate Stewardship (IBTrACS), a global best track data archive curated by NOAA dating back to 1842.

Updated: 2021-11-26